Terminal Aerodrome Forecast
Issued by NWS

Home | Current Version | Previous Version | Text Only | Print | Product List | Glossary On
Versions: 1 2 3 4 5 6 7 8 9 10 11 12 13 14 15 16
000
FTUS41 KBGM 250522
TAFRME
TAF
KRME 250522Z 2506/2606 VRB04KT P6SM BKN150
     FM251700 24006KT P6SM BKN040 OVC090
      TEMPO 2517/2520 3SM TSRA BR OVC035CB
     FM252100 27005KT P6SM BKN250=

USA.gov is the U.S. government's official web portal to all federal, state and local government web resources and services.